sensor_id;sensor_type;location;lat;lon;timestamp;noise_LAeq;noise_LA_min;noise_LA_max;noise_LA01;noise_LA95
47923;Laerm;33688;44.354;9.228;2023-12-04T00:01:21;37.66;34.97;43.93;;
47923;Laerm;33688;44.354;9.228;2023-12-04T00:03:47;37.68;34.97;44.12;;
47923;Laerm;33688;44.354;9.228;2023-12-04T00:06:13;37.70;34.55;44.29;;
47923;Laerm;33688;44.354;9.228;2023-12-04T00:08:40;37.68;34.96;44.30;;
47923;Laerm;33688;44.354;9.228;2023-12-04T00:11:06;37.69;35.01;44.10;;
47923;Laerm;33688;44.354;9.228;2023-12-04T00:13:33;37.67;35.08;43.92;;
47923;Laerm;33688;44.354;9.228;2023-12-04T00:16:00;37.69;35.00;44.04;;
47923;Laerm;33688;44.354;9.228;2023-12-04T00:18:27;37.64;35.00;44.09;;
47923;Laerm;33688;44.354;9.228;2023-12-04T00:20:53;37.67;35.01;44.11;;
47923;Laerm;33688;44.354;9.228;2023-12-04T00:23:19;37.65;35.11;43.98;;
47923;Laerm;33688;44.354;9.228;2023-12-04T00:25:45;37.65;34.72;44.47;;
47923;Laerm;33688;44.354;9.228;2023-12-04T00:28:12;37.66;34.94;44.13;;
47923;Laerm;33688;44.354;9.228;2023-12-04T00:30:37;37.67;34.83;44.23;;
47923;Laerm;33688;44.354;9.228;2023-12-04T00:33:04;37.66;35.11;44.22;;
47923;Laerm;33688;44.354;9.228;2023-12-04T00:35:29;37.62;34.97;44.13;;
47923;Laerm;33688;44.354;9.228;2023-12-04T00:37:56;37.60;35.02;44.08;;
47923;Laerm;33688;44.354;9.228;2023-12-04T00:40:22;37.65;34.99;44.24;;
47923;Laerm;33688;44.354;9.228;2023-12-04T00:42:48;37.65;35.04;43.96;;
47923;Laerm;33688;44.354;9.228;2023-12-04T00:45:14;37.63;34.88;44.03;;
47923;Laerm;33688;44.354;9.228;2023-12-04T00:47:40;37.70;34.97;44.04;;
47923;Laerm;33688;44.354;9.228;2023-12-04T00:50:06;37.67;34.92;44.04;;
47923;Laerm;33688;44.354;9.228;2023-12-04T00:52:32;37.69;34.96;43.99;;
47923;Laerm;33688;44.354;9.228;2023-12-04T00:55:01;37.62;35.00;44.12;;
47923;Laerm;33688;44.354;9.228;2023-12-04T00:57:27;37.67;34.94;44.27;;
47923;Laerm;33688;44.354;9.228;2023-12-04T00:59:53;37.68;34.98;44.18;;
47923;Laerm;33688;44.354;9.228;2023-12-04T01:02:19;37.68;34.99;44.19;;
47923;Laerm;33688;44.354;9.228;2023-12-04T01:04:44;37.70;34.98;44.23;;
47923;Laerm;33688;44.354;9.228;2023-12-04T01:07:10;37.65;34.91;44.35;;
47923;Laerm;33688;44.354;9.228;2023-12-04T01:09:37;37.69;34.94;44.32;;
47923;Laerm;33688;44.354;9.228;2023-12-04T01:12:04;37.68;34.91;44.11;;
47923;Laerm;33688;44.354;9.228;2023-12-04T01:14:30;37.70;34.73;44.04;;
47923;Laerm;33688;44.354;9.228;2023-12-04T01:16:56;37.68;34.91;44.40;;
47923;Laerm;33688;44.354;9.228;2023-12-04T01:19:22;37.68;34.90;44.12;;
47923;Laerm;33688;44.354;9.228;2023-12-04T01:21:48;37.67;34.89;44.11;;
47923;Laerm;33688;44.354;9.228;2023-12-04T01:24:15;37.67;34.84;44.18;;
47923;Laerm;33688;44.354;9.228;2023-12-04T01:26:42;37.65;34.88;43.95;;
47923;Laerm;33688;44.354;9.228;2023-12-04T01:29:07;37.74;35.10;44.57;;
47923;Laerm;33688;44.354;9.228;2023-12-04T01:31:34;37.67;34.93;44.14;;
47923;Laerm;33688;44.354;9.228;2023-12-04T01:34:01;37.69;34.83;44.03;;
47923;Laerm;33688;44.354;9.228;2023-12-04T01:36:27;37.63;35.01;44.11;;
47923;Laerm;33688;44.354;9.228;2023-12-04T01:38:53;37.67;34.98;44.10;;
47923;Laerm;33688;44.354;9.228;2023-12-04T01:41:19;37.67;34.93;44.19;;
47923;Laerm;33688;44.354;9.228;2023-12-04T01:43:45;37.66;34.77;44.20;;
47923;Laerm;33688;44.354;9.228;2023-12-04T01:46:11;37.67;35.00;44.44;;
47923;Laerm;33688;44.354;9.228;2023-12-04T01:48:39;37.65;34.99;44.14;;
47923;Laerm;33688;44.354;9.228;2023-12-04T01:51:08;37.74;34.98;44.50;;
47923;Laerm;33688;44.354;9.228;2023-12-04T01:53:36;37.82;35.00;45.00;;
47923;Laerm;33688;44.354;9.228;2023-12-04T01:56:04;37.70;34.95;44.17;;
47923;Laerm;33688;44.354;9.228;2023-12-04T01:58:33;37.62;34.99;44.19;;
47923;Laerm;33688;44.354;9.228;2023-12-04T02:00:59;37.65;34.95;44.21;;
47923;Laerm;33688;44.354;9.228;2023-12-04T02:03:25;37.67;34.95;44.06;;
47923;Laerm;33688;44.354;9.228;2023-12-04T02:05:51;37.66;34.92;44.20;;
47923;Laerm;33688;44.354;9.228;2023-12-04T02:08:18;37.67;35.03;43.97;;
47923;Laerm;33688;44.354;9.228;2023-12-04T02:10:44;37.65;35.03;44.29;;
47923;Laerm;33688;44.354;9.228;2023-12-04T02:13:10;37.66;34.98;44.12;;
47923;Laerm;33688;44.354;9.228;2023-12-04T02:15:36;37.66;34.83;44.17;;
47923;Laerm;33688;44.354;9.228;2023-12-04T02:18:03;37.67;35.02;44.12;;
47923;Laerm;33688;44.354;9.228;2023-12-04T02:20:35;37.64;34.92;44.11;;
47923;Laerm;33688;44.354;9.228;2023-12-04T02:23:02;37.55;35.02;44.51;;
47923;Laerm;33688;44.354;9.228;2023-12-04T02:25:29;37.65;34.78;44.13;;
47923;Laerm;33688;44.354;9.228;2023-12-04T02:28:00;37.68;35.01;44.30;;
47923;Laerm;33688;44.354;9.228;2023-12-04T02:30:29;37.62;34.82;44.38;;
47923;Laerm;33688;44.354;9.228;2023-12-04T02:32:58;37.63;35.05;44.17;;
47923;Laerm;33688;44.354;9.228;2023-12-04T02:35:27;37.63;34.91;44.01;;
47923;Laerm;33688;44.354;9.228;2023-12-04T02:37:55;37.64;35.02;43.98;;
47923;Laerm;33688;44.354;9.228;2023-12-04T02:40:24;37.65;35.08;44.01;;
47923;Laerm;33688;44.354;9.228;2023-12-04T02:42:50;37.67;34.84;44.18;;
47923;Laerm;33688;44.354;9.228;2023-12-04T02:45:18;37.65;34.99;44.12;;
47923;Laerm;33688;44.354;9.228;2023-12-04T02:47:43;37.66;35.04;44.04;;
47923;Laerm;33688;44.354;9.228;2023-12-04T02:50:09;37.66;34.93;44.06;;
47923;Laerm;33688;44.354;9.228;2023-12-04T02:52:35;37.72;34.88;49.19;;
47923;Laerm;33688;44.354;9.228;2023-12-04T02:55:01;37.65;35.05;44.15;;
47923;Laerm;33688;44.354;9.228;2023-12-04T02:57:26;37.64;34.94;44.04;;
47923;Laerm;33688;44.354;9.228;2023-12-04T02:59:52;37.61;34.95;43.93;;
47923;Laerm;33688;44.354;9.228;2023-12-04T03:02:18;37.64;35.03;44.00;;
47923;Laerm;33688;44.354;9.228;2023-12-04T03:04:45;37.64;35.06;44.17;;
47923;Laerm;33688;44.354;9.228;2023-12-04T03:07:11;37.67;34.99;44.13;;
47923;Laerm;33688;44.354;9.228;2023-12-04T03:09:39;37.61;34.87;44.05;;
47923;Laerm;33688;44.354;9.228;2023-12-04T03:12:06;37.64;35.07;44.12;;
47923;Laerm;33688;44.354;9.228;2023-12-04T03:14:31;37.69;34.98;44.27;;
47923;Laerm;33688;44.354;9.228;2023-12-04T03:16:57;37.66;34.92;44.03;;
47923;Laerm;33688;44.354;9.228;2023-12-04T03:19:49;37.40;35.00;44.19;;
47923;Laerm;33688;44.354;9.228;2023-12-04T03:22:17;37.49;34.95;43.91;;
47923;Laerm;33688;44.354;9.228;2023-12-04T03:24:43;37.67;35.08;44.16;;
47923;Laerm;33688;44.354;9.228;2023-12-04T03:27:09;37.87;35.08;44.19;;
47923;Laerm;33688;44.354;9.228;2023-12-04T03:29:34;37.65;34.99;44.14;;
47923;Laerm;33688;44.354;9.228;2023-12-04T03:32:01;37.66;34.97;44.08;;
47923;Laerm;33688;44.354;9.228;2023-12-04T03:34:27;37.67;34.94;44.04;;
47923;Laerm;33688;44.354;9.228;2023-12-04T03:36:53;37.64;35.02;44.07;;
47923;Laerm;33688;44.354;9.228;2023-12-04T03:39:19;37.67;35.01;44.12;;
47923;Laerm;33688;44.354;9.228;2023-12-04T03:41:44;37.66;35.05;44.11;;
47923;Laerm;33688;44.354;9.228;2023-12-04T03:44:10;37.62;34.92;43.88;;
47923;Laerm;33688;44.354;9.228;2023-12-04T03:46:36;37.60;34.98;43.90;;
47923;Laerm;33688;44.354;9.228;2023-12-04T03:49:01;37.63;35.09;44.12;;
47923;Laerm;33688;44.354;9.228;2023-12-04T03:51:29;37.62;34.93;44.03;;
47923;Laerm;33688;44.354;9.228;2023-12-04T03:53:55;37.95;34.95;54.57;;
47923;Laerm;33688;44.354;9.228;2023-12-04T03:56:21;37.62;34.76;44.11;;
47923;Laerm;33688;44.354;9.228;2023-12-04T03:58:47;37.67;34.99;44.12;;
47923;Laerm;33688;44.354;9.228;2023-12-04T04:01:13;37.69;34.96;44.54;;
47923;Laerm;33688;44.354;9.228;2023-12-04T04:03:40;37.63;34.97;43.99;;
47923;Laerm;33688;44.354;9.228;2023-12-04T04:06:06;37.66;35.03;44.90;;
47923;Laerm;33688;44.354;9.228;2023-12-04T04:08:33;37.62;34.96;44.11;;
47923;Laerm;33688;44.354;9.228;2023-12-04T04:10:59;37.65;34.81;43.90;;
47923;Laerm;33688;44.354;9.228;2023-12-04T04:13:25;37.60;34.90;44.10;;
47923;Laerm;33688;44.354;9.228;2023-12-04T04:15:51;37.66;34.97;44.06;;
47923;Laerm;33688;44.354;9.228;2023-12-04T04:18:17;37.64;34.89;44.08;;
47923;Laerm;33688;44.354;9.228;2023-12-04T04:20:43;37.62;34.98;43.98;;
47923;Laerm;33688;44.354;9.228;2023-12-04T04:23:36;37.37;34.74;44.00;;
47923;Laerm;33688;44.354;9.228;2023-12-04T04:26:02;37.55;34.87;43.98;;
47923;Laerm;33688;44.354;9.228;2023-12-04T04:28:28;37.59;35.00;44.32;;
47923;Laerm;33688;44.354;9.228;2023-12-04T04:30:53;37.63;34.96;43.96;;
47923;Laerm;33688;44.354;9.228;2023-12-04T04:33:21;37.59;34.99;43.81;;
47923;Laerm;33688;44.354;9.228;2023-12-04T04:35:47;37.63;35.05;44.01;;
47923;Laerm;33688;44.354;9.228;2023-12-04T04:38:13;37.62;34.92;43.86;;
47923;Laerm;33688;44.354;9.228;2023-12-04T04:40:41;37.60;35.02;44.01;;
47923;Laerm;33688;44.354;9.228;2023-12-04T04:43:10;37.57;34.98;43.90;;
47923;Laerm;33688;44.354;9.228;2023-12-04T04:45:36;37.60;34.83;43.97;;
47923;Laerm;33688;44.354;9.228;2023-12-04T04:48:02;37.60;35.01;44.17;;
47923;Laerm;33688;44.354;9.228;2023-12-04T04:50:28;37.64;35.03;44.00;;
47923;Laerm;33688;44.354;9.228;2023-12-04T04:52:54;37.61;34.99;43.93;;
47923;Laerm;33688;44.354;9.228;2023-12-04T04:55:20;37.59;34.99;44.15;;
47923;Laerm;33688;44.354;9.228;2023-12-04T04:57:45;37.61;35.07;43.93;;
47923;Laerm;33688;44.354;9.228;2023-12-04T05:00:13;37.59;35.00;44.06;;
47923;Laerm;33688;44.354;9.228;2023-12-04T05:02:39;37.71;34.98;47.11;;
47923;Laerm;33688;44.354;9.228;2023-12-04T05:05:06;37.66;34.99;50.65;;
47923;Laerm;33688;44.354;9.228;2023-12-04T05:07:33;37.61;35.04;44.07;;
47923;Laerm;33688;44.354;9.228;2023-12-04T05:10:00;37.63;35.05;43.95;;
47923;Laerm;33688;44.354;9.228;2023-12-04T05:12:25;37.64;35.02;43.95;;
47923;Laerm;33688;44.354;9.228;2023-12-04T05:14:51;37.58;35.09;43.97;;
47923;Laerm;33688;44.354;9.228;2023-12-04T05:17:17;37.61;35.05;44.13;;
47923;Laerm;33688;44.354;9.228;2023-12-04T05:19:43;37.67;35.07;44.23;;
47923;Laerm;33688;44.354;9.228;2023-12-04T05:22:08;37.67;35.08;43.91;;
47923;Laerm;33688;44.354;9.228;2023-12-04T05:24:34;37.71;34.99;44.08;;
47923;Laerm;33688;44.354;9.228;2023-12-04T05:27:02;37.61;34.92;44.15;;
47923;Laerm;33688;44.354;9.228;2023-12-04T05:29:29;37.61;34.98;44.02;;
47923;Laerm;33688;44.354;9.228;2023-12-04T05:32:13;37.41;35.02;43.84;;
47923;Laerm;33688;44.354;9.228;2023-12-04T05:34:39;37.55;34.96;43.96;;
47923;Laerm;33688;44.354;9.228;2023-12-04T05:37:04;37.82;34.86;48.00;;
47923;Laerm;33688;44.354;9.228;2023-12-04T05:39:30;37.57;34.94;43.91;;
47923;Laerm;33688;44.354;9.228;2023-12-04T05:41:57;37.67;34.96;50.65;;
47923;Laerm;33688;44.354;9.228;2023-12-04T05:44:23;37.63;34.92;44.01;;
47923;Laerm;33688;44.354;9.228;2023-12-04T05:46:49;37.61;35.05;44.22;;
47923;Laerm;33688;44.354;9.228;2023-12-04T05:49:14;37.63;34.95;43.94;;
47923;Laerm;33688;44.354;9.228;2023-12-04T05:51:40;37.61;35.06;43.85;;
47923;Laerm;33688;44.354;9.228;2023-12-04T05:54:06;37.63;34.88;44.26;;
47923;Laerm;33688;44.354;9.228;2023-12-04T05:56:32;37.61;34.95;43.94;;
47923;Laerm;33688;44.354;9.228;2023-12-04T05:58:57;37.58;34.96;43.99;;
47923;Laerm;33688;44.354;9.228;2023-12-04T06:01:23;37.61;34.99;44.05;;
47923;Laerm;33688;44.354;9.228;2023-12-04T06:03:49;37.63;35.04;44.10;;
47923;Laerm;33688;44.354;9.228;2023-12-04T06:06:15;37.60;34.99;44.05;;
47923;Laerm;33688;44.354;9.228;2023-12-04T06:08:40;37.64;35.04;43.95;;
47923;Laerm;33688;44.354;9.228;2023-12-04T06:11:06;37.62;35.02;43.92;;
47923;Laerm;33688;44.354;9.228;2023-12-04T06:13:32;37.63;35.01;43.88;;
47923;Laerm;33688;44.354;9.228;2023-12-04T06:15:59;37.59;34.83;44.12;;
47923;Laerm;33688;44.354;9.228;2023-12-04T06:18:25;37.63;34.93;44.26;;
47923;Laerm;33688;44.354;9.228;2023-12-04T06:20:52;37.61;34.98;44.11;;
47923;Laerm;33688;44.354;9.228;2023-12-04T06:23:18;37.62;35.05;43.83;;
47923;Laerm;33688;44.354;9.228;2023-12-04T06:25:44;37.62;34.99;44.29;;
47923;Laerm;33688;44.354;9.228;2023-12-04T06:28:10;37.63;35.03;44.17;;
47923;Laerm;33688;44.354;9.228;2023-12-04T06:30:36;37.80;35.06;51.48;;
47923;Laerm;33688;44.354;9.228;2023-12-04T06:33:03;37.68;34.82;43.94;;
47923;Laerm;33688;44.354;9.228;2023-12-04T06:35:29;37.68;34.86;44.10;;
47923;Laerm;33688;44.354;9.228;2023-12-04T06:37:57;37.64;35.05;44.19;;
47923;Laerm;33688;44.354;9.228;2023-12-04T06:40:26;37.63;35.08;44.03;;
47923;Laerm;33688;44.354;9.228;2023-12-04T06:42:52;37.74;34.99;46.04;;
47923;Laerm;33688;44.354;9.228;2023-12-04T06:45:19;37.67;35.09;44.23;;
47923;Laerm;33688;44.354;9.228;2023-12-04T06:47:46;37.67;35.01;44.07;;
47923;Laerm;33688;44.354;9.228;2023-12-04T06:50:17;37.59;34.70;43.97;;
47923;Laerm;33688;44.354;9.228;2023-12-04T06:52:43;37.73;35.04;48.33;;
47923;Laerm;33688;44.354;9.228;2023-12-04T06:55:10;38.42;35.09;44.11;;
47923;Laerm;33688;44.354;9.228;2023-12-04T06:57:36;37.67;34.99;44.02;;
47923;Laerm;33688;44.354;9.228;2023-12-04T07:00:02;37.66;35.09;43.96;;
47923;Laerm;33688;44.354;9.228;2023-12-04T07:02:28;37.74;35.12;44.15;;
47923;Laerm;33688;44.354;9.228;2023-12-04T07:04:54;37.69;35.01;44.07;;
47923;Laerm;33688;44.354;9.228;2023-12-04T07:07:21;37.66;35.01;44.15;;
47923;Laerm;33688;44.354;9.228;2023-12-04T07:09:48;37.69;35.16;44.18;;
47923;Laerm;33688;44.354;9.228;2023-12-04T07:12:16;37.67;35.03;44.13;;
47923;Laerm;33688;44.354;9.228;2023-12-04T07:14:41;37.67;35.10;44.07;;
47923;Laerm;33688;44.354;9.228;2023-12-04T07:17:09;37.60;35.08;44.16;;
47923;Laerm;33688;44.354;9.228;2023-12-04T07:19:35;37.63;35.15;43.78;;
47923;Laerm;33688;44.354;9.228;2023-12-04T07:22:03;37.57;34.90;44.05;;
47923;Laerm;33688;44.354;9.228;2023-12-04T07:24:29;40.69;35.13;57.50;;
47923;Laerm;33688;44.354;9.228;2023-12-04T07:26:56;41.36;35.21;62.55;;
47923;Laerm;33688;44.354;9.228;2023-12-04T07:29:22;40.43;35.14;52.19;;
47923;Laerm;33688;44.354;9.228;2023-12-04T07:31:49;41.97;34.95;54.16;;
47923;Laerm;33688;44.354;9.228;2023-12-04T07:34:15;47.72;35.01;65.02;;
47923;Laerm;33688;44.354;9.228;2023-12-04T07:36:42;45.57;35.17;63.51;;
47923;Laerm;33688;44.354;9.228;2023-12-04T07:39:11;38.79;35.01;57.69;;
47923;Laerm;33688;44.354;9.228;2023-12-04T07:41:38;44.24;35.08;63.20;;
47923;Laerm;33688;44.354;9.228;2023-12-04T07:44:04;41.24;35.17;57.62;;
47923;Laerm;33688;44.354;9.228;2023-12-04T07:46:30;44.32;35.52;60.27;;
47923;Laerm;33688;44.354;9.228;2023-12-04T07:48:57;43.05;35.79;59.16;;
47923;Laerm;33688;44.354;9.228;2023-12-04T07:51:23;40.48;34.98;60.22;;
47923;Laerm;33688;44.354;9.228;2023-12-04T07:53:49;38.59;35.02;52.63;;
47923;Laerm;33688;44.354;9.228;2023-12-04T07:56:15;41.24;35.03;62.69;;
47923;Laerm;33688;44.354;9.228;2023-12-04T07:58:42;40.79;35.25;48.70;;
47923;Laerm;33688;44.354;9.228;2023-12-04T08:01:08;43.46;35.11;61.56;;
47923;Laerm;33688;44.354;9.228;2023-12-04T08:03:34;53.60;35.26;66.93;;
47923;Laerm;33688;44.354;9.228;2023-12-04T08:05:59;48.74;35.11;67.36;;
47923;Laerm;33688;44.354;9.228;2023-12-04T08:08:25;53.00;35.20;66.83;;
47923;Laerm;33688;44.354;9.228;2023-12-04T08:10:52;52.32;35.21;67.00;;
47923;Laerm;33688;44.354;9.228;2023-12-04T08:13:18;55.35;35.16;68.50;;
47923;Laerm;33688;44.354;9.228;2023-12-04T08:15:44;55.02;35.11;69.67;;
47923;Laerm;33688;44.354;9.228;2023-12-04T08:18:11;53.16;35.06;67.82;;
47923;Laerm;33688;44.354;9.228;2023-12-04T08:20:37;49.82;35.37;64.78;;
47923;Laerm;33688;44.354;9.228;2023-12-04T08:23:03;50.36;35.15;69.05;;
47923;Laerm;33688;44.354;9.228;2023-12-04T08:25:29;50.94;35.21;66.92;;
47923;Laerm;33688;44.354;9.228;2023-12-04T08:27:55;53.14;35.23;66.08;;
47923;Laerm;33688;44.354;9.228;2023-12-04T08:30:21;53.40;34.82;67.36;;
47923;Laerm;33688;44.354;9.228;2023-12-04T08:32:47;54.84;35.30;68.24;;
47923;Laerm;33688;44.354;9.228;2023-12-04T08:35:13;54.28;35.22;66.50;;
47923;Laerm;33688;44.354;9.228;2023-12-04T08:37:39;56.12;35.16;74.86;;
47923;Laerm;33688;44.354;9.228;2023-12-04T08:40:08;53.71;41.46;72.33;;
47923;Laerm;33688;44.354;9.228;2023-12-04T08:42:38;57.98;41.22;83.57;;
47923;Laerm;33688;44.354;9.228;2023-12-04T08:45:05;61.17;41.73;84.30;;
47923;Laerm;33688;44.354;9.228;2023-12-04T08:47:32;55.93;42.08;75.94;;
47923;Laerm;33688;44.354;9.228;2023-12-04T08:49:57;54.42;41.36;66.79;;
47923;Laerm;33688;44.354;9.228;2023-12-04T08:52:25;61.48;41.91;85.05;;
47923;Laerm;33688;44.354;9.228;2023-12-04T08:54:51;54.27;41.45;64.89;;
47923;Laerm;33688;44.354;9.228;2023-12-04T08:57:17;53.81;42.16;66.01;;
47923;Laerm;33688;44.354;9.228;2023-12-04T08:59:44;55.44;41.93;67.86;;
47923;Laerm;33688;44.354;9.228;2023-12-04T09:02:10;55.29;42.28;70.31;;
47923;Laerm;33688;44.354;9.228;2023-12-04T09:04:36;55.05;42.16;68.43;;
47923;Laerm;33688;44.354;9.228;2023-12-04T09:07:02;57.93;42.45;80.04;;
47923;Laerm;33688;44.354;9.228;2023-12-04T09:09:47;54.82;42.72;67.08;;
47923;Laerm;33688;44.354;9.228;2023-12-04T09:12:13;58.20;42.28;82.94;;
47923;Laerm;33688;44.354;9.228;2023-12-04T09:14:39;60.08;42.56;81.47;;
47923;Laerm;33688;44.354;9.228;2023-12-04T09:17:10;55.34;42.75;81.34;;
47923;Laerm;33688;44.354;9.228;2023-12-04T09:19:36;53.91;42.20;69.03;;
47923;Laerm;33688;44.354;9.228;2023-12-04T09:22:02;60.36;42.05;86.19;;
47923;Laerm;33688;44.354;9.228;2023-12-04T09:24:28;56.08;42.13;79.49;;
47923;Laerm;33688;44.354;9.228;2023-12-04T09:26:54;54.52;42.17;68.19;;
47923;Laerm;33688;44.354;9.228;2023-12-04T09:29:20;55.10;42.40;70.24;;
47923;Laerm;33688;44.354;9.228;2023-12-04T09:31:51;54.30;42.58;65.69;;
47923;Laerm;33688;44.354;9.228;2023-12-04T09:34:18;64.10;41.88;91.40;;
47923;Laerm;33688;44.354;9.228;2023-12-04T09:36:46;46.25;41.75;64.15;;
47923;Laerm;33688;44.354;9.228;2023-12-04T09:39:14;50.95;41.83;74.94;;
47923;Laerm;33688;44.354;9.228;2023-12-04T09:41:41;57.97;42.32;75.09;;
47923;Laerm;33688;44.354;9.228;2023-12-04T09:44:09;59.80;42.04;81.40;;
47923;Laerm;33688;44.354;9.228;2023-12-04T09:46:36;51.09;42.72;76.43;;
47923;Laerm;33688;44.354;9.228;2023-12-04T09:49:05;50.32;42.24;68.08;;
47923;Laerm;33688;44.354;9.228;2023-12-04T09:51:33;51.17;42.30;67.61;;
47923;Laerm;33688;44.354;9.228;2023-12-04T09:54:02;56.11;42.34;67.94;;
47923;Laerm;33688;44.354;9.228;2023-12-04T09:56:33;62.03;42.83;74.73;;
47923;Laerm;33688;44.354;9.228;2023-12-04T09:59:00;62.48;42.30;80.17;;
47923;Laerm;33688;44.354;9.228;2023-12-04T10:01:29;64.25;42.56;81.64;;
47923;Laerm;33688;44.354;9.228;2023-12-04T10:03:57;66.29;42.75;80.18;;
47923;Laerm;33688;44.354;9.228;2023-12-04T10:06:27;66.26;42.87;79.81;;
47923;Laerm;33688;44.354;9.228;2023-12-04T10:08:58;54.95;42.69;71.31;;
47923;Laerm;33688;44.354;9.228;2023-12-04T10:11:25;55.32;43.03;74.47;;
47923;Laerm;33688;44.354;9.228;2023-12-04T10:15:07;54.00;42.17;68.23;;
47923;Laerm;33688;44.354;9.228;2023-12-04T10:17:39;63.74;42.14;82.71;;
47923;Laerm;33688;44.354;9.228;2023-12-04T10:20:15;65.73;42.69;79.67;;
47923;Laerm;33688;44.354;9.228;2023-12-04T10:23:01;56.17;42.34;72.45;;
47923;Laerm;33688;44.354;9.228;2023-12-04T10:25:30;47.48;41.97;61.70;;
47923;Laerm;33688;44.354;9.228;2023-12-04T10:28:13;46.44;41.93;57.14;;
47923;Laerm;33688;44.354;9.228;2023-12-04T10:30:41;48.22;42.35;60.20;;
47923;Laerm;33688;44.354;9.228;2023-12-04T10:33:08;46.86;42.13;62.73;;
47923;Laerm;33688;44.354;9.228;2023-12-04T10:35:36;49.83;42.20;66.78;;
47923;Laerm;33688;44.354;9.228;2023-12-04T10:38:06;49.96;41.98;69.13;;
47923;Laerm;33688;44.354;9.228;2023-12-04T10:40:36;60.84;42.25;77.78;;
47923;Laerm;33688;44.354;9.228;2023-12-04T10:43:16;52.03;42.54;65.13;;
47923;Laerm;33688;44.354;9.228;2023-12-04T10:46:03;52.35;42.36;68.55;;
47923;Laerm;33688;44.354;9.228;2023-12-04T10:48:29;53.57;42.40;66.96;;
47923;Laerm;33688;44.354;9.228;2023-12-04T10:50:58;58.18;42.14;82.00;;
47923;Laerm;33688;44.354;9.228;2023-12-04T10:53:24;54.79;42.26;78.24;;
47923;Laerm;33688;44.354;9.228;2023-12-04T10:55:52;47.57;42.29;67.31;;
47923;Laerm;33688;44.354;9.228;2023-12-04T10:58:26;44.98;42.43;54.87;;
47923;Laerm;33688;44.354;9.228;2023-12-04T11:00:54;45.81;42.49;70.66;;
47923;Laerm;33688;44.354;9.228;2023-12-04T11:03:37;64.29;42.41;87.81;;
47923;Laerm;33688;44.354;9.228;2023-12-04T11:06:08;67.86;42.51;82.20;;
47923;Laerm;33688;44.354;9.228;2023-12-04T11:08:36;65.32;42.70;80.64;;
47923;Laerm;33688;44.354;9.228;2023-12-04T11:11:05;51.30;42.37;73.63;;
47923;Laerm;33688;44.354;9.228;2023-12-04T11:13:44;44.75;42.43;56.56;;
47923;Laerm;33688;44.354;9.228;2023-12-04T11:16:53;63.55;42.16;82.04;;
47923;Laerm;33688;44.354;9.228;2023-12-04T11:20:02;64.07;42.03;81.30;;
47923;Laerm;33688;44.354;9.228;2023-12-04T11:22:34;61.23;42.67;76.12;;
47923;Laerm;33688;44.354;9.228;2023-12-04T11:25:06;59.10;42.04;78.31;;
47923;Laerm;33688;44.354;9.228;2023-12-04T11:27:34;43.78;42.37;49.45;;
47923;Laerm;33688;44.354;9.228;2023-12-04T11:30:02;44.69;42.38;59.43;;
47923;Laerm;33688;44.354;9.228;2023-12-04T11:32:35;44.49;42.22;58.93;;
47923;Laerm;33688;44.354;9.228;2023-12-04T11:35:14;45.72;42.22;62.17;;
47923;Laerm;33688;44.354;9.228;2023-12-04T11:37:42;62.58;42.56;77.67;;
47923;Laerm;33688;44.354;9.228;2023-12-04T11:40:12;59.08;42.71;77.42;;
47923;Laerm;33688;44.354;9.228;2023-12-04T11:42:39;49.03;42.72;64.90;;
47923;Laerm;33688;44.354;9.228;2023-12-04T11:45:05;54.03;42.27;72.43;;
47923;Laerm;33688;44.354;9.228;2023-12-04T11:47:51;47.05;42.26;65.82;;
47923;Laerm;33688;44.354;9.228;2023-12-04T11:50:19;61.84;42.56;80.91;;
47923;Laerm;33688;44.354;9.228;2023-12-04T11:52:47;62.67;42.20;80.52;;
47923;Laerm;33688;44.354;9.228;2023-12-04T11:55:31;45.41;41.84;64.67;;
47923;Laerm;33688;44.354;9.228;2023-12-04T11:58:00;52.94;42.24;76.05;;
47923;Laerm;33688;44.354;9.228;2023-12-04T12:00:35;47.11;41.69;70.64;;
47923;Laerm;33688;44.354;9.228;2023-12-04T12:03:05;43.46;41.20;46.76;;
47923;Laerm;33688;44.354;9.228;2023-12-04T12:05:38;43.63;41.97;50.19;;
47923;Laerm;33688;44.354;9.228;2023-12-04T12:08:08;43.11;41.24;47.16;;
47923;Laerm;33688;44.354;9.228;2023-12-04T12:10:36;43.33;41.70;46.13;;
47923;Laerm;33688;44.354;9.228;2023-12-04T12:13:02;43.47;41.66;47.60;;
47923;Laerm;33688;44.354;9.228;2023-12-04T12:15:33;43.28;41.46;46.31;;
47923;Laerm;33688;44.354;9.228;2023-12-04T12:17:58;43.05;41.20;47.07;;
47923;Laerm;33688;44.354;9.228;2023-12-04T12:20:26;43.05;41.30;48.77;;
47923;Laerm;33688;44.354;9.228;2023-12-04T12:22:52;43.28;41.07;52.80;;
47923;Laerm;33688;44.354;9.228;2023-12-04T12:25:18;43.40;40.97;53.42;;
47923;Laerm;33688;44.354;9.228;2023-12-04T12:27:45;43.29;41.01;53.73;;
47923;Laerm;33688;44.354;9.228;2023-12-04T12:30:13;43.09;41.08;48.67;;
47923;Laerm;33688;44.354;9.228;2023-12-04T12:32:40;43.20;41.15;45.56;;
47923;Laerm;33688;44.354;9.228;2023-12-04T12:35:07;43.08;41.10;49.04;;
47923;Laerm;33688;44.354;9.228;2023-12-04T12:37:34;45.50;40.54;65.24;;
47923;Laerm;33688;44.354;9.228;2023-12-04T12:40:00;44.62;41.24;60.71;;
47923;Laerm;33688;44.354;9.228;2023-12-04T12:42:28;43.92;42.16;52.82;;
47923;Laerm;33688;44.354;9.228;2023-12-04T12:44:55;43.50;41.04;45.97;;
47923;Laerm;33688;44.354;9.228;2023-12-04T12:47:26;43.20;41.13;45.70;;
47923;Laerm;33688;44.354;9.228;2023-12-04T12:49:52;43.25;41.15;45.55;;
47923;Laerm;33688;44.354;9.228;2023-12-04T12:52:38;43.28;40.74;52.84;;
47923;Laerm;33688;44.354;9.228;2023-12-04T12:55:05;43.74;41.04;53.47;;
47923;Laerm;33688;44.354;9.228;2023-12-04T12:57:31;43.35;42.11;45.50;;
47923;Laerm;33688;44.354;9.228;2023-12-04T12:59:58;43.22;40.95;46.49;;
47923;Laerm;33688;44.354;9.228;2023-12-04T13:02:26;43.39;42.33;46.68;;
47923;Laerm;33688;44.354;9.228;2023-12-04T13:04:51;43.43;41.10;46.01;;
47923;Laerm;33688;44.354;9.228;2023-12-04T13:07:17;43.20;40.99;45.73;;
47923;Laerm;33688;44.354;9.228;2023-12-04T13:09:43;43.21;40.99;46.89;;
47923;Laerm;33688;44.354;9.228;2023-12-04T13:12:09;43.17;40.86;45.67;;
47923;Laerm;33688;44.354;9.228;2023-12-04T13:14:36;49.00;41.29;63.91;;
47923;Laerm;33688;44.354;9.228;2023-12-04T13:17:04;48.87;41.63;64.49;;
47923;Laerm;33688;44.354;9.228;2023-12-04T13:19:30;45.00;41.11;57.76;;
47923;Laerm;33688;44.354;9.228;2023-12-04T13:22:26;44.01;41.98;58.84;;
47923;Laerm;33688;44.354;9.228;2023-12-04T13:24:55;43.53;42.12;54.81;;
47923;Laerm;33688;44.354;9.228;2023-12-04T13:27:22;50.29;42.46;67.77;;
47923;Laerm;33688;44.354;9.228;2023-12-04T13:29:49;48.83;42.23;65.80;;
47923;Laerm;33688;44.354;9.228;2023-12-04T13:32:16;50.51;42.21;63.88;;
47923;Laerm;33688;44.354;9.228;2023-12-04T13:34:42;49.63;42.39;67.93;;
47923;Laerm;33688;44.354;9.228;2023-12-04T13:37:09;50.06;42.44;69.78;;
47923;Laerm;33688;44.354;9.228;2023-12-04T13:39:35;46.13;42.50;62.02;;
47923;Laerm;33688;44.354;9.228;2023-12-04T13:42:24;52.03;42.14;69.56;;
47923;Laerm;33688;44.354;9.228;2023-12-04T13:45:27;60.00;42.18;77.14;;
47923;Laerm;33688;44.354;9.228;2023-12-04T13:47:53;60.51;42.44;75.42;;
47923;Laerm;33688;44.354;9.228;2023-12-04T13:50:19;45.80;41.99;68.36;;